createdAt,value
2024-05-09T00:00:59.864Z,52.29
2024-05-09T00:01:59.865Z,51.16
2024-05-09T00:02:59.850Z,53.38
2024-05-09T00:03:59.869Z,51.30
2024-05-09T00:04:59.948Z,51.59
2024-05-09T00:05:59.971Z,51.91
2024-05-09T00:06:59.844Z,53.12
2024-05-09T00:07:59.875Z,51.75
2024-05-09T00:08:59.855Z,51.26
2024-05-09T00:09:59.862Z,51.41
2024-05-09T00:10:59.916Z,52.37
2024-05-09T00:12:00.063Z,50.00
2024-05-09T00:12:59.851Z,53.96
2024-05-09T00:13:59.887Z,50.64
2024-05-09T00:14:59.878Z,50.54
2024-05-09T00:15:59.868Z,51.79
2024-05-09T00:16:59.891Z,52.21
2024-05-09T00:18:05.729Z,52.93
2024-05-09T00:19:00.022Z,53.12
2024-05-09T00:19:59.886Z,53.40
2024-05-09T00:21:00.000Z,53.13
2024-05-09T00:21:59.877Z,52.96
2024-05-09T00:22:59.893Z,52.12
2024-05-09T00:23:59.861Z,52.97
2024-05-09T00:24:59.876Z,51.55
2024-05-09T00:25:59.956Z,51.71
2024-05-09T00:26:59.878Z,52.58
2024-05-09T00:27:59.890Z,51.37
2024-05-09T00:28:59.923Z,51.06
2024-05-09T00:29:59.894Z,52.03
2024-05-09T00:30:59.904Z,51.50
2024-05-09T00:32:00.017Z,52.38
2024-05-09T00:32:59.989Z,50.15
2024-05-09T00:34:00.047Z,51.89
2024-05-09T00:34:59.924Z,51.27
2024-05-09T00:35:59.892Z,51.58
2024-05-09T00:36:59.909Z,54.27
2024-05-09T00:38:00.107Z,51.67
2024-05-09T00:38:59.894Z,51.71
2024-05-09T00:39:59.895Z,52.86
2024-05-09T00:40:59.965Z,50.32
2024-05-09T00:42:04.956Z,52.23
2024-05-09T00:42:59.936Z,52.40
2024-05-09T00:44:00.029Z,52.71
2024-05-09T00:44:59.985Z,52.29
2024-05-09T00:45:59.994Z,52.48
2024-05-09T00:47:00.029Z,53.21
2024-05-09T00:48:00.262Z,52.53
2024-05-09T00:49:00.025Z,52.67
2024-05-09T00:50:00.023Z,52.59
2024-05-09T00:51:00.022Z,52.54
2024-05-09T00:52:00.023Z,52.72
2024-05-09T00:53:00.080Z,51.25
2024-05-09T00:54:00.124Z,50.45
2024-05-09T00:55:00.188Z,51.96
2024-05-09T00:56:01.033Z,52.55
2024-05-09T00:57:00.345Z,53.40
2024-05-09T00:58:00.467Z,50.00
2024-05-09T00:59:00.657Z,50.93
2024-05-09T01:00:00.725Z,50.59
2024-05-09T01:01:00.877Z,53.94
2024-05-09T01:02:01.043Z,50.94
2024-05-09T01:03:01.288Z,51.86
2024-05-09T01:04:01.327Z,52.83
2024-05-09T01:05:01.426Z,52.99
2024-05-09T01:06:01.464Z,55.01
2024-05-09T01:07:01.556Z,53.96
2024-05-09T01:08:01.768Z,53.83
2024-05-09T01:09:01.791Z,53.44
2024-05-09T01:10:01.906Z,53.61
2024-05-09T01:11:02.154Z,55.05
2024-05-09T01:12:02.403Z,53.47
2024-05-09T01:13:02.294Z,52.21
2024-05-09T01:14:02.465Z,52.88
2024-05-09T01:15:02.565Z,52.97
2024-05-09T01:16:02.661Z,50.81
2024-05-09T01:17:02.864Z,50.92
2024-05-09T01:18:03.112Z,52.89
2024-05-09T01:19:03.344Z,53.50
2024-05-09T01:20:05.794Z,53.44
2024-05-09T01:21:03.207Z,53.43
2024-05-09T01:22:07.073Z,50.49
2024-05-09T01:23:03.230Z,50.71
2024-05-09T01:24:03.188Z,50.69
2024-05-09T01:25:03.209Z,51.38
2024-05-09T01:26:03.239Z,50.53
2024-05-09T01:27:03.214Z,50.15
2024-05-09T01:28:03.226Z,50.76
2024-05-09T01:29:03.232Z,51.00
2024-05-09T01:30:07.039Z,52.56
2024-05-09T01:31:04.202Z,52.65
2024-05-09T01:32:03.280Z,52.74
2024-05-09T01:33:03.574Z,52.38
2024-05-09T01:34:03.276Z,53.64
2024-05-09T01:35:03.241Z,51.48
2024-05-09T01:36:03.210Z,51.38
2024-05-09T01:37:03.219Z,52.33
2024-05-09T01:38:03.284Z,53.20
2024-05-09T01:39:03.336Z,52.91
2024-05-09T01:40:03.669Z,50.20
2024-05-09T01:41:03.615Z,50.00
2024-05-09T01:42:08.657Z,51.25
2024-05-09T01:43:03.627Z,51.46
2024-05-09T01:44:03.690Z,51.55
2024-05-09T01:45:03.639Z,51.96
2024-05-09T01:46:03.648Z,52.20
2024-05-09T01:47:03.670Z,52.53
2024-05-09T01:48:04.104Z,51.24
2024-05-09T01:49:03.765Z,51.12
2024-05-09T01:50:03.760Z,53.04
2024-05-09T01:51:03.677Z,51.84
2024-05-09T01:52:03.777Z,50.12
2024-05-09T01:53:03.950Z,50.66
2024-05-09T01:54:04.010Z,51.53
2024-05-09T01:55:06.481Z,50.05
2024-05-09T01:56:04.156Z,50.78
2024-05-09T01:57:04.135Z,50.72
2024-05-09T01:58:04.203Z,51.11
2024-05-09T01:59:04.196Z,51.33
2024-05-09T02:00:06.073Z,52.52
2024-05-09T02:01:04.188Z,52.66
2024-05-09T02:02:04.268Z,52.81
2024-05-09T02:03:04.293Z,53.24
2024-05-09T02:04:04.453Z,53.05
2024-05-09T02:05:04.300Z,49.45
2024-05-09T02:06:04.201Z,52.13
2024-05-09T02:07:04.174Z,50.75
2024-05-09T02:08:04.220Z,51.18
2024-05-09T02:09:04.195Z,51.72
2024-05-09T02:10:10.813Z,52.11
2024-05-09T02:11:05.285Z,52.18
2024-05-09T02:12:08.936Z,51.54
2024-05-09T02:13:04.190Z,52.19
2024-05-09T02:14:04.223Z,52.48
2024-05-09T02:15:04.196Z,52.34
2024-05-09T02:16:04.198Z,53.62
2024-05-09T02:17:04.273Z,51.18
2024-05-09T02:18:04.558Z,52.97
2024-05-09T02:19:04.277Z,50.89
2024-05-09T02:20:06.012Z,51.81
2024-05-09T02:21:04.361Z,51.65
2024-05-09T02:22:04.221Z,51.83
2024-05-09T02:23:04.898Z,50.92
2024-05-09T02:24:04.276Z,52.06
2024-05-09T02:25:04.224Z,51.15
2024-05-09T02:26:04.335Z,50.77
2024-05-09T02:27:04.395Z,51.80
2024-05-09T02:28:04.523Z,51.68
2024-05-09T02:29:04.620Z,52.19
2024-05-09T02:30:09.920Z,50.00
2024-05-09T02:31:05.734Z,50.11
2024-05-09T02:32:04.784Z,50.64
2024-05-09T02:33:04.975Z,50.60
2024-05-09T02:34:04.960Z,51.26
2024-05-09T02:35:04.765Z,50.20
2024-05-09T02:36:04.743Z,50.48
2024-05-09T02:37:04.758Z,51.28
2024-05-09T02:38:04.813Z,52.62
2024-05-09T02:39:04.883Z,50.02
2024-05-09T02:40:05.749Z,50.00
2024-05-09T02:41:05.061Z,52.01
2024-05-09T02:42:05.095Z,50.60
2024-05-09T02:43:05.388Z,51.90
2024-05-09T02:44:05.298Z,50.92
2024-05-09T02:45:05.344Z,52.54
2024-05-09T02:46:05.458Z,52.95
2024-05-09T02:47:05.630Z,53.28
2024-05-09T02:48:05.910Z,52.92
2024-05-09T02:49:05.774Z,52.17
2024-05-09T02:50:07.818Z,52.40
2024-05-09T02:51:05.852Z,50.83
2024-05-09T02:52:05.860Z,50.93
2024-05-09T02:53:06.354Z,50.49
2024-05-09T02:54:06.136Z,51.02
2024-05-09T02:55:06.259Z,52.53
2024-05-09T02:56:06.407Z,50.47
2024-05-09T02:57:06.566Z,50.00
2024-05-09T02:58:06.637Z,51.51
2024-05-09T02:59:06.804Z,51.94
2024-05-09T03:00:14.947Z,52.16
2024-05-09T03:01:07.925Z,52.21
2024-05-09T03:02:07.020Z,52.35
2024-05-09T03:03:07.203Z,52.78
2024-05-09T03:04:07.135Z,52.19
2024-05-09T03:05:06.955Z,50.91
2024-05-09T03:06:06.892Z,51.61
2024-05-09T03:07:06.933Z,50.58
2024-05-09T03:08:07.016Z,51.94
2024-05-09T03:09:07.016Z,51.38
2024-05-09T03:10:14.567Z,54.04
2024-05-09T03:11:08.209Z,54.14
2024-05-09T03:12:07.208Z,54.28
2024-05-09T03:13:07.151Z,52.88
2024-05-09T03:14:07.231Z,53.65
2024-05-09T03:15:07.197Z,51.59
2024-05-09T03:16:07.199Z,54.66
2024-05-09T03:17:17.394Z,55.00
2024-05-09T03:18:07.611Z,55.30
2024-05-09T03:19:07.275Z,55.60
2024-05-09T03:20:14.542Z,55.50
2024-05-09T03:21:08.358Z,55.21
2024-05-09T03:22:07.201Z,55.04
2024-05-09T03:23:07.462Z,55.96
2024-05-09T03:24:07.223Z,54.93
2024-05-09T03:25:07.234Z,53.71
2024-05-09T03:26:07.258Z,53.96
2024-05-09T03:27:07.272Z,53.84
2024-05-09T03:28:07.285Z,53.73
2024-05-09T03:29:07.402Z,52.13
2024-05-09T03:30:09.643Z,52.60
2024-05-09T03:31:07.539Z,53.27
2024-05-09T03:32:07.758Z,52.59
2024-05-09T03:33:08.125Z,53.64
2024-05-09T03:34:07.919Z,51.13
2024-05-09T03:35:07.874Z,52.48
2024-05-09T03:36:10.535Z,51.42
2024-05-09T03:37:07.885Z,54.79
2024-05-09T03:38:07.934Z,52.38
2024-05-09T03:39:07.896Z,54.53
2024-05-09T03:40:11.822Z,50.93
2024-05-09T03:41:08.964Z,51.20
2024-05-09T03:42:07.893Z,51.71
2024-05-09T03:43:07.896Z,52.04
2024-05-09T03:44:07.930Z,53.07
2024-05-09T03:45:07.915Z,53.40
2024-05-09T03:46:07.903Z,51.75
2024-05-09T03:47:08.030Z,51.44
2024-05-09T03:48:08.226Z,50.70
2024-05-09T03:49:08.076Z,53.83
2024-05-09T03:50:15.134Z,52.98
2024-05-09T03:51:09.214Z,53.06
2024-05-09T03:52:08.038Z,53.12
2024-05-09T03:53:08.116Z,53.11
2024-05-09T03:54:08.049Z,52.23
2024-05-09T03:55:08.047Z,52.74
2024-05-09T03:56:08.104Z,51.89
2024-05-09T03:57:08.063Z,51.19
2024-05-09T03:58:08.268Z,53.02
2024-05-09T03:59:08.160Z,53.88
2024-05-09T04:00:14.849Z,53.55
2024-05-09T04:01:09.296Z,53.61
2024-05-09T04:02:08.356Z,52.83
2024-05-09T04:03:10.967Z,51.95
2024-05-09T04:04:08.299Z,53.61
2024-05-09T04:05:08.304Z,52.86
2024-05-09T04:06:08.254Z,53.22
2024-05-09T04:07:08.289Z,51.92
2024-05-09T04:08:08.296Z,50.37
2024-05-09T04:09:08.276Z,50.00
2024-05-09T04:10:11.262Z,51.54
2024-05-09T04:11:09.336Z,51.70
2024-05-09T04:12:08.409Z,51.67
2024-05-09T04:13:08.278Z,51.69
2024-05-09T04:14:08.327Z,50.39
2024-05-09T04:15:12.071Z,54.32
2024-05-09T04:16:08.309Z,51.70
2024-05-09T04:17:08.323Z,52.11
2024-05-09T04:18:08.654Z,51.72
2024-05-09T04:19:08.411Z,51.99
2024-05-09T04:20:10.583Z,51.96
2024-05-09T04:21:08.465Z,51.62
2024-05-09T04:22:08.422Z,51.72
2024-05-09T04:23:09.264Z,51.45
2024-05-09T04:24:08.335Z,50.21
2024-05-09T04:25:08.340Z,49.74
2024-05-09T04:26:08.433Z,49.69
2024-05-09T04:27:08.352Z,53.10
2024-05-09T04:28:08.343Z,51.80
2024-05-09T04:29:09.094Z,50.27
2024-05-09T04:30:15.270Z,54.90
2024-05-09T04:31:09.347Z,54.95
2024-05-09T04:32:16.718Z,50.00
2024-05-09T04:33:16.787Z,50.00
2024-05-09T04:34:16.710Z,50.00
2024-05-09T04:35:16.760Z,50.00
2024-05-09T04:36:16.840Z,50.00
2024-05-09T04:37:16.970Z,51.57
2024-05-09T04:38:17.214Z,51.08
2024-05-09T04:39:17.205Z,50.95
2024-05-09T04:40:27.546Z,52.08
2024-05-09T04:41:18.334Z,52.13
2024-05-09T04:42:17.336Z,49.39
2024-05-09T04:43:17.516Z,49.59
2024-05-09T04:44:17.341Z,49.21
2024-05-09T04:45:17.374Z,47.55
2024-05-09T04:46:17.366Z,51.16
2024-05-09T04:47:17.534Z,50.70
2024-05-09T04:48:17.510Z,52.00
2024-05-09T04:49:17.535Z,51.78
2024-05-09T04:50:25.341Z,50.70
2024-05-09T04:51:18.359Z,50.84
2024-05-09T04:52:17.373Z,51.05
2024-05-09T04:53:17.692Z,51.12
2024-05-09T04:54:26.497Z,51.03
2024-05-09T04:55:18.359Z,50.79
2024-05-09T04:56:17.413Z,51.04
2024-05-09T04:57:17.385Z,50.87
2024-05-09T04:58:17.376Z,51.48
2024-05-09T04:59:17.441Z,51.28
2024-05-09T05:00:25.462Z,50.00
2024-05-09T05:01:18.455Z,50.17
2024-05-09T05:02:22.519Z,50.71
2024-05-09T05:03:17.808Z,50.20
2024-05-09T05:04:17.623Z,50.62
2024-05-09T05:05:17.576Z,51.39
2024-05-09T05:06:17.505Z,51.67
2024-05-09T05:07:17.622Z,51.23
2024-05-09T05:08:18.802Z,51.27
2024-05-09T05:09:17.818Z,50.54
2024-05-09T05:10:25.268Z,52.93
2024-05-09T05:11:19.024Z,53.01
2024-05-09T05:12:17.940Z,51.52
2024-05-09T05:13:18.935Z,51.71
2024-05-09T05:14:17.920Z,51.04
2024-05-09T05:15:17.872Z,49.61
2024-05-09T05:16:17.875Z,51.72
2024-05-09T05:17:17.936Z,51.59
2024-05-09T05:18:18.486Z,51.52
2024-05-09T05:19:18.023Z,51.66
2024-05-09T05:20:27.060Z,52.87
2024-05-09T05:21:19.141Z,52.94
2024-05-09T05:22:17.866Z,53.05
2024-05-09T05:23:17.975Z,51.05
2024-05-09T05:24:17.890Z,53.01
2024-05-09T05:25:17.895Z,50.44
2024-05-09T05:26:17.931Z,50.00
2024-05-09T05:27:17.928Z,50.00
2024-05-09T05:28:17.880Z,52.88
2024-05-09T05:29:20.821Z,50.70
2024-05-09T05:30:24.773Z,53.09
2024-05-09T05:31:18.955Z,53.31
2024-05-09T05:32:18.152Z,53.50
2024-05-09T05:33:18.396Z,54.01
2024-05-09T05:34:17.907Z,53.95
2024-05-09T05:35:18.032Z,55.20
2024-05-09T05:36:17.990Z,53.23
2024-05-09T05:37:17.916Z,53.90
2024-05-09T05:38:18.148Z,53.84
2024-05-09T05:39:17.933Z,54.87
2024-05-09T05:40:27.960Z,51.68
2024-05-09T05:41:19.066Z,51.79
2024-05-09T05:42:17.917Z,52.13
2024-05-09T05:43:18.115Z,52.36
2024-05-09T05:44:17.958Z,53.20
2024-05-09T05:45:17.920Z,52.73
2024-05-09T05:46:17.917Z,51.02
2024-05-09T05:47:17.999Z,51.39
2024-05-09T05:48:18.392Z,51.10
2024-05-09T05:49:18.090Z,52.07
2024-05-09T05:50:27.271Z,52.09
2024-05-09T05:51:19.165Z,52.25
2024-05-09T05:52:18.027Z,52.17
2024-05-09T05:53:18.122Z,50.09
2024-05-09T05:54:18.041Z,50.11
2024-05-09T05:55:18.024Z,50.83
2024-05-09T05:56:18.091Z,51.71
2024-05-09T05:57:18.028Z,53.51
2024-05-09T05:58:18.033Z,52.06
2024-05-09T05:59:18.313Z,52.21
2024-05-09T06:00:29.124Z,53.01
2024-05-09T06:01:19.301Z,53.10
2024-05-09T06:02:18.370Z,53.36
2024-05-09T06:03:18.282Z,53.85
2024-05-09T06:04:18.335Z,51.95
2024-05-09T06:05:18.381Z,50.33
2024-05-09T06:06:18.251Z,50.88
2024-05-09T06:07:18.279Z,51.14
2024-05-09T06:08:18.303Z,51.19
2024-05-09T06:09:18.292Z,53.47
2024-05-09T06:10:25.178Z,54.02
2024-05-09T06:11:19.398Z,54.14
2024-05-09T06:12:18.332Z,54.39
2024-05-09T06:13:18.284Z,53.68
2024-05-09T06:14:18.372Z,52.39
2024-05-09T06:15:18.286Z,55.14
2024-05-09T06:16:18.289Z,51.70
2024-05-09T06:17:18.440Z,53.28
2024-05-09T06:18:18.674Z,52.49
2024-05-09T06:19:18.362Z,52.02
2024-05-09T06:20:23.994Z,52.41
2024-05-09T06:21:19.492Z,52.54
2024-05-09T06:22:18.292Z,52.47
2024-05-09T06:23:18.431Z,52.14
2024-05-09T06:24:18.292Z,52.91
2024-05-09T06:25:18.294Z,52.30
2024-05-09T06:26:18.366Z,53.42
2024-05-09T06:27:18.305Z,50.87
2024-05-09T06:28:18.302Z,52.00
2024-05-09T06:29:18.339Z,52.37
2024-05-09T06:31:18.288Z,52.42
2024-05-09T06:32:18.370Z,55.11
2024-05-09T06:33:18.599Z,52.79
2024-05-09T06:34:18.486Z,53.59
2024-05-09T06:35:18.426Z,51.83
2024-05-09T06:36:18.315Z,52.63
2024-05-09T06:37:18.321Z,51.63
2024-05-09T06:38:18.368Z,53.32
2024-05-09T06:39:18.358Z,52.09
2024-05-09T06:40:25.444Z,50.92
2024-05-09T06:41:19.386Z,51.12
2024-05-09T06:42:18.335Z,51.23
2024-05-09T06:43:19.617Z,51.74
2024-05-09T06:44:18.392Z,51.60
2024-05-09T06:45:18.346Z,53.35
2024-05-09T06:46:18.346Z,51.76
2024-05-09T06:47:18.441Z,51.79
2024-05-09T06:48:18.792Z,51.84
2024-05-09T06:49:18.573Z,53.06
2024-05-09T06:50:23.918Z,51.37
2024-05-09T06:51:19.384Z,51.44
2024-05-09T06:52:18.347Z,51.91
2024-05-09T06:53:18.372Z,52.18
2024-05-09T06:54:18.356Z,52.21
2024-05-09T06:55:18.449Z,51.08
2024-05-09T06:56:18.423Z,53.86
2024-05-09T06:57:18.367Z,53.79
2024-05-09T06:58:18.358Z,50.74
2024-05-09T06:59:18.471Z,50.08
2024-05-09T07:00:26.895Z,50.33
2024-05-09T07:01:19.421Z,50.47
2024-05-09T07:02:18.453Z,50.94
2024-05-09T07:03:19.480Z,50.91
2024-05-09T07:04:18.462Z,52.21
2024-05-09T07:05:18.484Z,50.50
2024-05-09T07:06:18.485Z,52.46
2024-05-09T07:07:18.395Z,50.87
2024-05-09T07:08:18.550Z,52.33
2024-05-09T07:09:18.390Z,51.94
2024-05-09T07:10:25.721Z,52.49
2024-05-09T07:11:19.462Z,52.55
2024-05-09T07:12:18.550Z,52.99
2024-05-09T07:13:18.387Z,52.83
2024-05-09T07:14:18.525Z,52.92
2024-05-09T07:15:18.402Z,53.11
2024-05-09T07:16:18.405Z,53.00
2024-05-09T07:17:18.459Z,52.43
2024-05-09T07:18:19.316Z,51.57
2024-05-09T07:19:18.678Z,52.26
2024-05-09T07:20:23.761Z,50.40
2024-05-09T07:21:19.676Z,50.57
2024-05-09T07:22:18.534Z,50.80
2024-05-09T07:23:18.760Z,51.70
2024-05-09T07:24:18.540Z,52.72
2024-05-09T07:25:18.550Z,51.81
2024-05-09T07:26:18.765Z,51.81
2024-05-09T07:27:18.560Z,53.03
2024-05-09T07:28:18.702Z,52.49
2024-05-09T07:29:18.696Z,51.73
2024-05-09T07:30:23.821Z,52.58
2024-05-09T07:31:19.578Z,52.64
2024-05-09T07:32:19.047Z,52.76
2024-05-09T07:33:19.553Z,53.01
2024-05-09T07:34:19.093Z,51.81
2024-05-09T07:35:18.567Z,52.96
2024-05-09T07:36:18.566Z,52.48
2024-05-09T07:37:18.572Z,51.90
2024-05-09T07:38:18.729Z,51.94
2024-05-09T07:39:18.668Z,50.27
2024-05-09T07:40:28.461Z,52.17
2024-05-09T07:41:19.608Z,52.25
2024-05-09T07:42:18.589Z,52.29
2024-05-09T07:43:18.590Z,51.58
2024-05-09T07:44:18.640Z,50.65
2024-05-09T07:47:14.456Z,52.93
2024-05-09T07:48:29.207Z,53.11
2024-05-09T07:53:38.234Z,53.30
2024-05-09T07:54:19.849Z,53.41
2024-05-09T07:55:18.944Z,54.27
2024-05-09T07:56:20.379Z,54.08
2024-05-09T07:57:18.725Z,53.17
2024-05-09T07:58:18.703Z,53.37
2024-05-09T07:59:18.646Z,53.11
2024-05-09T08:00:23.823Z,53.85
2024-05-09T08:01:20.037Z,53.15
2024-05-09T08:02:18.723Z,53.31
2024-05-09T08:03:18.826Z,53.12
2024-05-09T08:04:18.733Z,53.03
2024-05-09T08:05:18.807Z,51.62
2024-05-09T08:06:18.669Z,51.72
2024-05-09T08:07:18.711Z,52.75
2024-05-09T08:08:18.691Z,51.79
2024-05-09T08:09:21.243Z,51.00
2024-05-09T08:10:22.253Z,53.53
2024-05-09T08:11:19.769Z,53.73
2024-05-09T08:12:18.663Z,53.98
2024-05-09T08:13:18.817Z,54.21
2024-05-09T08:14:18.677Z,51.33
2024-05-09T08:15:18.680Z,52.61
2024-05-09T08:16:18.927Z,53.30
2024-05-09T08:17:18.730Z,51.37
2024-05-09T08:18:18.789Z,51.65
2024-05-09T08:19:18.805Z,52.85
2024-05-09T08:20:27.078Z,50.21
2024-05-09T08:21:19.751Z,50.30
2024-05-09T08:22:18.690Z,50.96
2024-05-09T08:23:18.674Z,50.90
2024-05-09T08:24:18.713Z,51.70
2024-05-09T08:25:18.757Z,50.85
2024-05-09T08:26:18.699Z,51.13
2024-05-09T08:27:18.698Z,53.13
2024-05-09T08:28:18.900Z,53.66
2024-05-09T08:29:18.851Z,53.55
2024-05-09T08:30:25.197Z,50.42
2024-05-09T08:31:20.051Z,50.57
2024-05-09T08:32:18.990Z,51.26
2024-05-09T08:33:19.009Z,51.74
2024-05-09T08:34:19.060Z,52.98
2024-05-09T08:35:18.955Z,53.85
2024-05-09T08:36:18.966Z,54.39
2024-05-09T08:37:22.533Z,50.73
2024-05-09T08:38:20.033Z,50.96
2024-05-09T08:39:18.953Z,51.48
2024-05-09T08:40:27.295Z,52.21
2024-05-09T08:41:19.985Z,51.00
2024-05-09T08:42:18.966Z,51.60
2024-05-09T08:43:19.276Z,52.11
2024-05-09T08:44:19.004Z,53.43
2024-05-09T08:45:18.982Z,54.68
2024-05-09T08:46:19.262Z,55.28
2024-05-09T08:47:19.001Z,53.93
2024-05-09T08:48:19.311Z,51.33
2024-05-09T08:49:19.044Z,51.70
2024-05-09T08:50:28.941Z,54.90
2024-05-09T08:51:19.984Z,54.94
2024-05-09T08:52:19.073Z,54.39
2024-05-09T08:53:19.009Z,53.75
2024-05-09T08:54:18.998Z,52.81
2024-05-09T08:55:19.047Z,51.99
2024-05-09T08:56:18.982Z,54.04
2024-05-09T08:57:18.993Z,54.75
2024-05-09T08:58:19.235Z,53.70
2024-05-09T08:59:18.994Z,53.14
2024-05-09T09:00:29.260Z,53.79
2024-05-09T09:01:20.117Z,53.92
2024-05-09T09:02:19.457Z,53.20
2024-05-09T09:03:27.017Z,50.00
2024-05-09T09:04:26.884Z,50.00
2024-05-09T09:05:26.916Z,50.00
2024-05-09T09:06:26.982Z,50.00
2024-05-09T09:07:27.075Z,50.00
2024-05-09T09:08:27.087Z,51.86
2024-05-09T09:09:27.282Z,53.55
2024-05-09T09:10:32.024Z,52.47
2024-05-09T09:11:28.344Z,52.55
2024-05-09T09:12:27.385Z,52.57
2024-05-09T09:13:27.332Z,49.43
2024-05-09T09:14:27.306Z,50.27
2024-05-09T09:15:27.373Z,50.40
2024-05-09T09:16:27.371Z,51.70
2024-05-09T09:17:27.416Z,52.83
2024-05-09T09:18:27.835Z,52.25
2024-05-09T09:19:27.429Z,53.18
2024-05-09T09:20:34.223Z,52.50
2024-05-09T09:21:28.338Z,52.63
2024-05-09T09:22:27.325Z,52.60
2024-05-09T09:23:27.335Z,52.66
2024-05-09T09:24:27.378Z,52.88
2024-05-09T09:25:27.319Z,53.09
2024-05-09T09:26:27.328Z,51.34
2024-05-09T09:27:27.369Z,53.44
2024-05-09T09:28:27.369Z,52.71
2024-05-09T09:29:27.410Z,51.23
2024-05-09T09:30:35.243Z,53.02
2024-05-09T09:31:28.708Z,53.08
2024-05-09T09:32:27.621Z,53.07
2024-05-09T09:33:27.582Z,51.48
2024-05-09T09:34:27.737Z,53.38
2024-05-09T09:35:27.540Z,50.87
2024-05-09T09:36:27.583Z,51.80
2024-05-09T09:37:27.559Z,50.98
2024-05-09T09:38:27.555Z,53.04
2024-05-09T09:39:27.731Z,51.50
2024-05-09T09:40:32.020Z,51.46
2024-05-09T09:41:28.785Z,51.54
2024-05-09T09:42:27.880Z,51.70
2024-05-09T09:43:27.842Z,52.06
2024-05-09T09:44:27.783Z,50.84
2024-05-09T09:45:27.858Z,49.98
2024-05-09T09:46:27.884Z,51.35
2024-05-09T09:47:27.937Z,52.33
2024-05-09T09:48:27.988Z,54.85
2024-05-09T09:49:27.977Z,52.79
2024-05-09T09:50:34.101Z,54.60
2024-05-09T09:51:29.132Z,54.74
2024-05-09T09:52:28.125Z,54.68
2024-05-09T09:53:28.098Z,54.69
2024-05-09T09:54:28.125Z,55.23
2024-05-09T09:55:28.107Z,55.29
2024-05-09T09:56:28.150Z,56.65
2024-05-09T09:57:28.139Z,54.57
2024-05-09T09:58:28.275Z,54.87
2024-05-09T09:59:28.121Z,54.03
2024-05-09T10:00:32.862Z,54.66
2024-05-09T10:01:29.213Z,54.83
2024-05-09T10:02:28.250Z,54.96
2024-05-09T10:03:28.270Z,55.69
2024-05-09T10:04:28.266Z,55.33
2024-05-09T10:05:28.322Z,54.64
2024-05-09T10:06:28.138Z,54.77
2024-05-09T10:07:28.124Z,56.07
2024-05-09T10:08:28.140Z,55.01
2024-05-09T10:09:28.161Z,54.58
2024-05-09T10:10:32.322Z,55.58
2024-05-09T10:11:29.187Z,55.66
2024-05-09T10:12:28.237Z,55.83
2024-05-09T10:13:28.215Z,55.65
2024-05-09T10:14:28.143Z,54.66
2024-05-09T10:15:28.242Z,53.48
2024-05-09T10:16:28.206Z,53.97
2024-05-09T10:17:28.210Z,53.07
2024-05-09T10:18:30.380Z,53.74
2024-05-09T10:19:28.369Z,52.40
2024-05-09T10:20:32.386Z,53.21
2024-05-09T10:21:28.230Z,53.31
2024-05-09T10:22:28.278Z,53.46
2024-05-09T10:23:28.272Z,53.99
2024-05-09T10:24:28.239Z,53.35
2024-05-09T10:25:28.290Z,52.58
2024-05-09T10:26:28.201Z,50.76
2024-05-09T10:27:28.247Z,51.60
2024-05-09T10:28:28.246Z,52.57
2024-05-09T10:29:28.250Z,53.15
2024-05-09T10:30:34.154Z,54.66
2024-05-09T10:31:29.287Z,54.70
2024-05-09T10:32:28.477Z,54.28
2024-05-09T10:33:28.420Z,53.43
2024-05-09T10:34:28.381Z,52.23
2024-05-09T10:35:28.269Z,52.77
2024-05-09T10:36:28.301Z,52.64
2024-05-09T10:37:28.339Z,53.23
2024-05-09T10:38:28.289Z,51.37
2024-05-09T10:39:28.452Z,52.89
2024-05-09T10:40:31.412Z,53.02
2024-05-09T10:41:28.539Z,50.90
2024-05-09T10:42:28.578Z,52.23
2024-05-09T10:43:28.562Z,52.83
2024-05-09T10:44:28.546Z,51.09
2024-05-09T10:45:28.580Z,51.96
2024-05-09T10:46:28.591Z,53.62
2024-05-09T10:47:28.675Z,52.52
2024-05-09T10:48:28.658Z,53.21
2024-05-09T10:49:28.572Z,52.78
2024-05-09T10:50:31.986Z,53.20
2024-05-09T10:51:29.611Z,53.36
2024-05-09T10:52:28.609Z,53.60
2024-05-09T10:53:28.542Z,53.54
2024-05-09T10:54:28.600Z,54.76
2024-05-09T10:55:28.582Z,54.01
2024-05-09T10:56:28.562Z,53.33
2024-05-09T10:57:28.629Z,52.06
2024-05-09T10:58:42.701Z,52.79
2024-05-09T10:59:28.600Z,53.18
2024-05-09T11:00:33.846Z,54.16
2024-05-09T11:01:29.654Z,53.14
2024-05-09T11:02:28.734Z,54.11
2024-05-09T11:03:28.736Z,54.99
2024-05-09T11:04:28.647Z,55.74
2024-05-09T11:05:28.737Z,59.09
2024-05-09T11:06:28.591Z,57.08
2024-05-09T11:07:28.631Z,57.67
2024-05-09T11:08:28.710Z,57.08
2024-05-09T11:09:28.913Z,56.81
2024-05-09T11:10:33.765Z,54.90
2024-05-09T11:11:29.997Z,55.00
2024-05-09T11:12:29.009Z,55.19
2024-05-09T11:13:29.000Z,54.92
2024-05-09T11:14:28.973Z,55.35
2024-05-09T11:15:29.011Z,56.67
2024-05-09T11:16:29.024Z,54.38
2024-05-09T11:17:29.094Z,56.64
2024-05-09T11:18:31.880Z,54.89
2024-05-09T11:19:30.066Z,55.01
2024-05-09T11:20:30.012Z,55.53
2024-05-09T11:21:29.020Z,55.01
2024-05-09T11:22:28.976Z,55.18
2024-05-09T11:23:28.993Z,55.20
2024-05-09T11:24:29.056Z,55.39
2024-05-09T11:25:28.996Z,55.48
2024-05-09T11:26:29.004Z,55.71
2024-05-09T11:27:29.025Z,56.13
2024-05-09T11:28:29.224Z,54.32
2024-05-09T11:29:29.024Z,55.60
2024-05-09T11:30:31.901Z,53.69
2024-05-09T11:31:29.113Z,53.84
2024-05-09T11:32:29.392Z,53.86
2024-05-09T11:33:29.134Z,54.47
2024-05-09T11:34:29.061Z,53.87
2024-05-09T11:35:28.992Z,53.58
2024-05-09T11:36:29.067Z,56.91
2024-05-09T11:37:29.009Z,54.33
2024-05-09T11:38:29.012Z,55.83
2024-05-09T11:39:29.030Z,55.11
2024-05-09T11:40:34.175Z,56.17
2024-05-09T11:41:30.004Z,56.30
2024-05-09T11:42:29.030Z,56.19
2024-05-09T11:43:29.047Z,54.98
2024-05-09T11:44:29.048Z,54.71
2024-05-09T11:45:29.028Z,54.55
2024-05-09T11:46:29.057Z,57.37
2024-05-09T11:47:29.079Z,56.31
2024-05-09T11:48:29.157Z,56.04
2024-05-09T11:49:29.246Z,55.85
2024-05-09T11:50:33.182Z,55.48
2024-05-09T11:51:30.289Z,55.60
2024-05-09T11:52:29.237Z,55.76
2024-05-09T11:53:29.343Z,56.20
2024-05-09T11:54:29.300Z,55.68
2024-05-09T11:55:29.454Z,54.28
2024-05-09T11:56:29.264Z,54.57
2024-05-09T11:57:29.331Z,54.80
2024-05-09T11:58:29.306Z,53.84
2024-05-09T11:59:29.258Z,53.71
2024-05-09T12:00:36.200Z,54.89
2024-05-09T12:01:30.481Z,55.02
2024-05-09T12:02:29.411Z,54.72
2024-05-09T12:03:29.361Z,55.66
2024-05-09T12:04:29.455Z,54.42
2024-05-09T12:05:29.485Z,52.93
2024-05-09T12:06:29.382Z,51.80
2024-05-09T12:07:29.327Z,54.10
2024-05-09T12:08:29.324Z,51.92
2024-05-09T12:09:29.395Z,53.39
2024-05-09T12:10:32.913Z,53.56
2024-05-09T12:11:30.515Z,53.67
2024-05-09T12:12:29.466Z,53.76
2024-05-09T12:13:29.526Z,53.36
2024-05-09T12:14:29.494Z,53.62
2024-05-09T12:15:29.549Z,53.79
2024-05-09T12:16:29.616Z,53.37
2024-05-09T12:17:29.681Z,54.25
2024-05-09T12:18:29.815Z,51.94
2024-05-09T12:19:29.535Z,52.94
2024-05-09T12:20:36.187Z,51.40
2024-05-09T12:21:30.516Z,51.60
2024-05-09T12:22:29.491Z,51.82
2024-05-09T12:23:29.486Z,52.15
2024-05-09T12:24:29.552Z,52.31
2024-05-09T12:25:29.495Z,54.88
2024-05-09T12:26:29.493Z,54.44
2024-05-09T12:27:29.513Z,52.97
2024-05-09T12:28:29.530Z,52.68
2024-05-09T12:29:29.634Z,51.77
2024-05-09T12:30:36.404Z,51.76
2024-05-09T12:31:30.842Z,51.88
2024-05-09T12:32:29.801Z,52.16
2024-05-09T12:33:29.872Z,52.62
2024-05-09T12:34:29.968Z,52.48
2024-05-09T12:35:29.774Z,52.84
2024-05-09T12:36:29.820Z,53.77
2024-05-09T12:37:29.774Z,54.61
2024-05-09T12:38:29.792Z,51.79
2024-05-09T12:39:29.960Z,53.11
2024-05-09T12:40:35.791Z,55.05
2024-05-09T12:41:31.044Z,55.07
2024-05-09T12:42:32.512Z,55.21
2024-05-09T12:43:30.223Z,55.13
2024-05-09T12:44:30.031Z,54.98
2024-05-09T12:45:30.061Z,55.47
2024-05-09T12:46:30.092Z,52.92
2024-05-09T12:47:30.123Z,53.61
2024-05-09T12:48:30.224Z,55.25
2024-05-09T12:49:30.166Z,53.42
2024-05-09T12:50:33.264Z,53.35
2024-05-09T12:51:30.091Z,53.47
2024-05-09T12:52:30.030Z,53.94
2024-05-09T12:53:35.648Z,53.72
2024-05-09T12:54:30.307Z,53.55
2024-05-09T12:55:36.437Z,53.90
2024-05-09T12:56:31.309Z,53.64
2024-05-09T12:57:30.353Z,53.82
2024-05-09T12:58:30.339Z,54.32
2024-05-09T12:59:30.333Z,54.10
2024-05-09T13:00:33.786Z,53.86